Time;durP1;ratioP1;P1;durP2;ratioP2;P2;SDS_P1;SDS_P2;PMS_P1;PMS_P2;Temp;Humidity;BMP_temperature;BMP_pressure;BME280_temperature;BME280_humidity;BME280_pressure;Samples;Min_cycle;Max_cycle;Signal;HPM_P1;HPM_P2
2023/12/04 00:00:04;;;;;;;37.73;18.17;;;-0.20;99.90;;;;;;5024235;28;20048;-79
2023/12/04 00:02:30;;;;;;;36.93;17.43;;;-0.20;99.90;;;;;;5052376;28;20055;-79
2023/12/04 00:04:56;;;;;;;36.20;18.23;;;-0.10;99.90;;;;;;5050996;28;20034;-79
2023/12/04 00:07:21;;;;;;;34.10;17.30;;;-0.20;99.90;;;;;;5052392;28;20037;-78
2023/12/04 00:09:47;;;;;;;36.63;18.23;;;-0.20;99.90;;;;;;5048147;28;20037;-78
2023/12/04 00:12:12;;;;;;;34.90;18.30;;;-0.20;99.90;;;;;;5026768;28;20033;-79
2023/12/04 00:14:38;;;;;;;32.30;17.57;;;-0.20;99.90;;;;;;5054501;28;20063;-78
2023/12/04 00:17:04;;;;;;;34.27;16.83;;;-0.20;99.90;;;;;;5035169;28;20063;-78
2023/12/04 00:19:29;;;;;;;37.67;19.00;;;-0.20;99.90;;;;;;5051215;28;20071;-78
2023/12/04 00:21:55;;;;;;;33.30;17.50;;;-0.20;99.90;;;;;;5051760;28;20033;-78
2023/12/04 00:24:20;;;;;;;38.93;19.40;;;-0.20;99.90;;;;;;5049443;28;20128;-78
2023/12/04 00:26:46;;;;;;;40.60;19.67;;;-0.20;99.90;;;;;;5031945;28;20459;-78
2023/12/04 00:29:12;;;;;;;37.50;18.57;;;-0.20;99.90;;;;;;5044492;28;20067;-78
2023/12/04 00:31:37;;;;;;;35.70;18.43;;;-0.20;99.90;;;;;;5045220;28;20091;-78
2023/12/04 00:34:03;;;;;;;37.33;18.80;;;-0.20;99.90;;;;;;5047868;28;20029;-78
2023/12/04 00:36:28;;;;;;;39.83;19.03;;;-0.20;99.90;;;;;;5045016;28;20048;-78
2023/12/04 00:38:54;;;;;;;37.53;18.40;;;-0.20;99.90;;;;;;5044811;28;20052;-78
2023/12/04 00:41:20;;;;;;;37.27;19.30;;;-0.20;99.90;;;;;;5031902;28;20029;-79
2023/12/04 00:43:45;;;;;;;37.40;19.43;;;-0.20;99.90;;;;;;5048582;28;20041;-77
2023/12/04 00:46:11;;;;;;;34.47;17.97;;;-0.20;99.90;;;;;;5044971;28;20436;-78
2023/12/04 00:48:36;;;;;;;35.57;18.53;;;-0.20;99.90;;;;;;5045894;28;20067;-78
2023/12/04 00:51:02;;;;;;;32.53;18.13;;;-0.20;99.90;;;;;;5050923;28;20409;-78
2023/12/04 00:53:28;;;;;;;37.50;19.27;;;-0.20;99.90;;;;;;5042952;28;20029;-77
2023/12/04 00:55:53;;;;;;;37.13;19.13;;;-0.20;99.90;;;;;;5049849;28;20611;-77
2023/12/04 00:58:19;;;;;;;35.03;19.43;;;-0.20;99.90;;;;;;5028397;28;20168;-77
2023/12/04 01:00:44;;;;;;;37.87;19.57;;;-0.20;99.90;;;;;;5077303;28;20406;-77
2023/12/04 01:03:10;;;;;;;37.93;19.80;;;-0.20;99.90;;;;;;5046700;28;20049;-78
2023/12/04 01:05:36;;;;;;;36.03;18.33;;;-0.20;99.90;;;;;;5049550;28;20102;-77
2023/12/04 01:08:01;;;;;;;34.30;18.10;;;-0.20;99.90;;;;;;5050137;28;20043;-78
2023/12/04 01:10:27;;;;;;;33.00;18.53;;;-0.20;99.90;;;;;;5044333;28;20067;-78
2023/12/04 01:12:52;;;;;;;33.73;18.30;;;-0.20;99.90;;;;;;5048605;28;20497;-78
2023/12/04 01:15:18;;;;;;;35.33;18.67;;;-0.20;99.90;;;;;;5046485;28;20040;-78
2023/12/04 01:17:43;;;;;;;33.77;18.40;;;-0.20;99.90;;;;;;5028729;28;20565;-78
2023/12/04 01:20:09;;;;;;;35.97;18.37;;;-0.20;99.90;;;;;;5044624;28;20087;-78
2023/12/04 01:22:35;;;;;;;35.07;18.30;;;-0.20;99.90;;;;;;5049996;28;20068;-78
2023/12/04 01:25:01;;;;;;;35.13;17.33;;;-0.20;99.90;;;;;;5042003;28;20040;-78
2023/12/04 01:27:26;;;;;;;33.63;18.70;;;-0.20;99.90;;;;;;5028695;28;20124;-78
2023/12/04 01:29:52;;;;;;;34.33;17.23;;;-0.20;99.90;;;;;;5050823;28;20040;-78
2023/12/04 01:32:17;;;;;;;34.90;18.10;;;-0.20;99.90;;;;;;5046155;28;20408;-78
2023/12/04 01:34:43;;;;;;;35.63;18.13;;;-0.20;99.90;;;;;;5026646;28;20028;-79
2023/12/04 01:37:09;;;;;;;34.57;17.83;;;-0.20;99.90;;;;;;5046654;28;20040;-78
2023/12/04 01:39:34;;;;;;;37.00;18.17;;;-0.20;99.90;;;;;;5049293;28;20025;-78
2023/12/04 01:42:00;;;;;;;33.70;17.90;;;-0.20;99.90;;;;;;5050118;28;20660;-78
2023/12/04 01:44:25;;;;;;;35.13;18.40;;;-0.20;99.90;;;;;;5049648;28;20037;-78
2023/12/04 01:46:51;;;;;;;33.20;17.13;;;-0.20;99.90;;;;;;5048824;28;20507;-79
2023/12/04 01:49:17;;;;;;;37.37;18.20;;;-0.20;99.90;;;;;;5049924;28;20086;-79
2023/12/04 01:51:44;;;;;;;34.93;18.53;;;-0.20;99.90;;;;;;5046547;28;20502;-79
2023/12/04 01:54:10;;;;;;;35.90;18.90;;;-0.20;99.90;;;;;;5044411;28;20546;-79
2023/12/04 01:56:37;;;;;;;38.20;18.43;;;-0.20;99.90;;;;;;5048239;28;20036;-79
2023/12/04 01:59:03;;;;;;;33.70;17.43;;;-0.20;99.90;;;;;;5033246;28;20524;-79
2023/12/04 02:01:30;;;;;;;36.07;18.23;;;-0.20;99.90;;;;;;5045200;28;20046;-79
2023/12/04 02:03:57;;;;;;;32.57;16.90;;;-0.20;99.90;;;;;;5050320;28;20166;-79
2023/12/04 02:06:22;;;;;;;34.17;17.33;;;-0.20;99.90;;;;;;5047817;28;20163;-78
2023/12/04 02:08:48;;;;;;;33.63;17.37;;;-0.20;99.90;;;;;;5044855;28;20033;-78
2023/12/04 02:11:14;;;;;;;35.80;17.50;;;-0.20;99.90;;;;;;5042019;28;20519;-79
2023/12/04 02:13:40;;;;;;;32.17;16.63;;;-0.20;99.90;;;;;;5050972;28;20029;-79
2023/12/04 02:16:09;;;;;;;34.37;16.97;;;-0.20;99.90;;;;;;5026720;28;20030;-79
2023/12/04 02:18:35;;;;;;;33.17;17.40;;;-0.20;99.90;;;;;;5029108;28;20044;-79
2023/12/04 02:21:01;;;;;;;35.13;17.77;;;-0.20;99.90;;;;;;5029073;28;20048;-79
2023/12/04 02:23:28;;;;;;;35.13;17.90;;;-0.20;99.90;;;;;;5049742;28;20034;-79
2023/12/04 02:26:05;;;;;;;32.90;16.93;;;-0.20;99.90;;;;;;5049313;28;20437;-79
2023/12/04 02:28:33;;;;;;;35.33;16.53;;;-0.20;99.90;;;;;;5043547;28;20041;-79
2023/12/04 02:31:01;;;;;;;33.33;17.67;;;-0.20;99.90;;;;;;5033317;28;20066;-79
2023/12/04 02:33:27;;;;;;;33.60;16.67;;;-0.20;99.90;;;;;;5048956;28;20091;-79
2023/12/04 02:35:55;;;;;;;30.07;16.20;;;-0.20;99.90;;;;;;5030734;28;20032;-79
2023/12/04 02:38:21;;;;;;;36.17;17.97;;;-0.20;99.90;;;;;;5027978;28;20037;-79
2023/12/04 02:40:47;;;;;;;36.00;17.33;;;-0.20;99.90;;;;;;5043319;28;20053;-79
2023/12/04 02:43:12;;;;;;;34.57;17.40;;;-0.20;99.90;;;;;;5047581;28;20041;-79
2023/12/04 02:45:38;;;;;;;34.07;17.13;;;-0.10;99.90;;;;;;5040186;28;20037;-79
2023/12/04 02:48:04;;;;;;;39.07;18.03;;;-0.10;99.90;;;;;;5076674;28;20040;-80
2023/12/04 02:50:29;;;;;;;34.30;17.07;;;-0.10;99.90;;;;;;5058354;28;20043;-79
2023/12/04 02:52:55;;;;;;;30.77;16.53;;;-0.10;99.90;;;;;;5024030;28;20079;-81
2023/12/04 02:55:20;;;;;;;32.60;16.50;;;-0.10;99.90;;;;;;5049827;28;20029;-80
2023/12/04 02:57:46;;;;;;;32.10;17.17;;;-0.10;99.90;;;;;;5032887;28;20036;-80
2023/12/04 03:00:12;;;;;;;30.97;16.17;;;-0.10;99.90;;;;;;5050380;28;20044;-79
2023/12/04 03:02:38;;;;;;;36.20;16.70;;;-0.10;99.90;;;;;;5039900;28;20037;-80
2023/12/04 03:05:04;;;;;;;33.70;17.97;;;-0.10;99.90;;;;;;5049071;28;20583;-80
2023/12/04 03:07:29;;;;;;;32.20;16.13;;;-0.10;99.90;;;;;;5045454;28;20071;-79
2023/12/04 03:09:55;;;;;;;32.23;16.67;;;-0.10;99.90;;;;;;5042915;28;20073;-80
2023/12/04 03:12:20;;;;;;;32.23;16.97;;;-0.10;99.90;;;;;;5046492;28;20578;-80
2023/12/04 03:14:46;;;;;;;35.57;16.97;;;-0.10;99.90;;;;;;5043889;28;20089;-80
2023/12/04 03:17:12;;;;;;;31.23;16.03;;;-0.10;99.90;;;;;;5043717;28;20160;-80
2023/12/04 03:19:37;;;;;;;34.50;16.33;;;-0.10;99.90;;;;;;5048145;28;20048;-80
2023/12/04 03:22:03;;;;;;;35.47;17.37;;;-0.10;99.90;;;;;;5025063;28;20044;-80
2023/12/04 03:24:28;;;;;;;36.17;16.90;;;-0.10;99.90;;;;;;5048088;28;20455;-79
2023/12/04 03:26:54;;;;;;;31.10;16.60;;;-0.10;99.90;;;;;;5045324;28;20033;-80
2023/12/04 03:29:20;;;;;;;33.13;17.20;;;-0.10;99.90;;;;;;5043644;28;20037;-80
2023/12/04 03:31:45;;;;;;;34.70;17.47;;;-0.10;99.90;;;;;;5048034;28;20087;-80
2023/12/04 03:34:11;;;;;;;31.87;16.40;;;-0.10;99.90;;;;;;5047538;28;20129;-80
2023/12/04 03:36:37;;;;;;;31.87;16.57;;;0.60;99.90;;;;;;5061841;28;20469;-80
2023/12/04 03:39:02;;;;;;;34.27;16.83;;;0.00;99.90;;;;;;5044870;28;20040;-80
2023/12/04 03:41:28;;;;;;;34.73;17.70;;;0.00;99.90;;;;;;5031675;28;20106;-80
2023/12/04 03:43:54;;;;;;;33.60;16.77;;;-0.10;99.90;;;;;;5050531;28;20048;-80
2023/12/04 03:46:19;;;;;;;33.07;17.20;;;0.00;99.90;;;;;;5029786;28;20075;-80
2023/12/04 03:48:45;;;;;;;34.43;16.93;;;0.00;99.90;;;;;;5042575;28;20055;-79
2023/12/04 03:51:11;;;;;;;34.20;17.43;;;0.00;99.90;;;;;;5049953;28;20048;-80
2023/12/04 03:53:36;;;;;;;32.13;15.83;;;0.00;99.90;;;;;;5043952;28;20523;-80
2023/12/04 03:56:02;;;;;;;35.77;17.77;;;0.00;99.90;;;;;;5046179;28;20064;-80
2023/12/04 03:58:28;;;;;;;33.57;16.53;;;0.00;99.90;;;;;;5046223;28;20504;-80
2023/12/04 04:00:53;;;;;;;32.53;16.63;;;0.00;99.90;;;;;;5032106;28;20045;-80
2023/12/04 04:03:19;;;;;;;32.50;15.80;;;0.00;99.90;;;;;;5049087;28;20041;-80
2023/12/04 04:05:45;;;;;;;31.53;16.07;;;0.00;99.90;;;;;;5043325;28;20112;-81
2023/12/04 04:08:10;;;;;;;31.87;16.37;;;0.00;99.90;;;;;;5049630;28;20045;-81
2023/12/04 04:10:36;;;;;;;29.40;15.67;;;0.00;99.90;;;;;;5042066;28;20078;-80
2023/12/04 04:13:02;;;;;;;30.47;15.90;;;0.00;99.90;;;;;;5073064;28;20048;-81
2023/12/04 04:15:28;;;;;;;31.70;15.33;;;0.00;99.90;;;;;;5046272;28;20048;-81
2023/12/04 04:17:53;;;;;;;31.07;16.20;;;0.00;99.90;;;;;;5033813;28;20067;-81
2023/12/04 04:20:20;;;;;;;34.30;16.10;;;0.00;99.90;;;;;;5051400;28;20064;-80
2023/12/04 04:22:48;;;;;;;33.77;15.93;;;0.00;99.90;;;;;;5055196;28;20163;-81
2023/12/04 04:25:13;;;;;;;31.43;17.40;;;0.00;99.90;;;;;;5055602;28;20120;-81
2023/12/04 04:27:39;;;;;;;30.53;16.03;;;0.00;99.90;;;;;;5024034;28;20068;-80
2023/12/04 04:30:05;;;;;;;31.93;15.50;;;0.00;99.90;;;;;;5047818;28;20043;-81
2023/12/04 04:32:31;;;;;;;31.70;15.40;;;0.00;99.90;;;;;;5051963;28;20048;-81
2023/12/04 04:34:57;;;;;;;29.50;15.97;;;0.00;99.90;;;;;;5047594;28;20126;-81
2023/12/04 04:37:22;;;;;;;31.80;15.57;;;0.00;99.90;;;;;;5036194;28;20508;-82
2023/12/04 04:39:48;;;;;;;33.40;16.30;;;0.10;99.90;;;;;;5031873;28;20418;-81
2023/12/04 04:42:14;;;;;;;32.57;15.53;;;0.00;99.90;;;;;;5035195;28;20044;-81
2023/12/04 04:44:40;;;;;;;30.63;15.87;;;0.00;99.90;;;;;;5051195;28;20037;-81
2023/12/04 04:47:05;;;;;;;29.77;15.20;;;0.10;99.90;;;;;;5052091;28;20041;-82
2023/12/04 04:49:31;;;;;;;30.30;15.83;;;0.10;99.90;;;;;;5038267;28;20442;-82
2023/12/04 04:51:57;;;;;;;34.67;15.83;;;0.10;99.90;;;;;;5051500;28;20033;-81
2023/12/04 04:54:22;;;;;;;30.93;15.40;;;0.00;99.90;;;;;;5035218;28;20094;-82
2023/12/04 04:56:48;;;;;;;31.73;15.47;;;0.00;99.90;;;;;;5054820;28;20346;-81
2023/12/04 04:59:13;;;;;;;30.10;15.67;;;0.10;99.90;;;;;;5053964;28;20594;-82
2023/12/04 05:01:39;;;;;;;30.03;15.10;;;0.40;99.90;;;;;;5055018;28;20047;-82
2023/12/04 05:04:05;;;;;;;30.50;15.37;;;0.10;99.90;;;;;;5057608;28;20406;-82
2023/12/04 05:06:30;;;;;;;32.00;14.83;;;0.10;99.90;;;;;;5038399;28;20032;-82
2023/12/04 05:08:57;;;;;;;32.30;15.60;;;0.20;99.90;;;;;;5029816;28;20111;-82
2023/12/04 05:11:23;;;;;;;28.17;14.70;;;0.10;99.90;;;;;;5039487;28;20048;-84
2023/12/04 05:13:49;;;;;;;30.37;15.87;;;0.10;99.90;;;;;;5052336;28;20090;-82
2023/12/04 05:16:15;;;;;;;31.60;16.20;;;0.00;99.90;;;;;;5055474;28;20037;-82
2023/12/04 05:18:41;;;;;;;32.27;15.83;;;0.00;99.90;;;;;;5037693;28;20459;-82
2023/12/04 05:21:10;;;;;;;28.20;14.93;;;0.10;99.90;;;;;;5054133;28;20465;-83
2023/12/04 05:23:37;;;;;;;29.23;14.97;;;0.10;99.90;;;;;;5055057;28;20048;-82
2023/12/04 05:26:03;;;;;;;28.50;14.73;;;0.00;99.90;;;;;;5054195;28;20033;-82
2023/12/04 05:28:28;;;;;;;29.03;15.60;;;0.10;99.90;;;;;;5071951;28;20041;-81
2023/12/04 05:30:54;;;;;;;29.80;14.73;;;0.00;99.90;;;;;;5053743;28;20064;-82
2023/12/04 05:33:20;;;;;;;29.27;15.37;;;0.10;99.90;;;;;;5069487;28;20049;-82
2023/12/04 05:35:48;;;;;;;29.90;15.07;;;0.10;99.90;;;;;;5080505;28;20028;-81
2023/12/04 05:38:13;;;;;;;27.10;13.10;;;0.10;99.90;;;;;;5088431;28;20411;-82
2023/12/04 05:40:39;;;;;;;31.00;16.07;;;0.10;99.90;;;;;;5082185;28;20118;-82
2023/12/04 05:43:04;;;;;;;29.87;14.37;;;0.10;99.90;;;;;;5054159;28;20029;-81
2023/12/04 05:45:30;;;;;;;29.40;15.20;;;0.10;99.90;;;;;;5052548;28;20060;-82
2023/12/04 05:47:56;;;;;;;29.67;14.77;;;0.00;99.90;;;;;;5036034;28;20041;-82
2023/12/04 05:50:21;;;;;;;31.17;14.43;;;0.10;99.90;;;;;;5051589;28;20413;-82
2023/12/04 05:52:47;;;;;;;29.37;13.60;;;0.00;99.90;;;;;;5049518;28;20044;-81
2023/12/04 05:55:13;;;;;;;30.17;14.10;;;0.10;99.90;;;;;;5050494;28;20045;-81
2023/12/04 05:57:39;;;;;;;29.67;14.07;;;0.80;99.90;;;;;;5045609;28;20036;-82
2023/12/04 06:00:12;;;;;;;28.70;14.07;;;0.10;99.90;;;;;;5050041;28;20040;-82
2023/12/04 06:02:41;;;;;;;26.40;13.33;;;0.00;99.90;;;;;;5053459;28;20435;-81
2023/12/04 06:05:07;;;;;;;26.20;13.33;;;0.00;99.90;;;;;;5064915;28;20037;-82
2023/12/04 06:07:33;;;;;;;28.43;14.80;;;0.10;99.90;;;;;;5053264;28;20045;-80
2023/12/04 06:09:59;;;;;;;25.87;12.97;;;0.00;99.90;;;;;;5042845;28;20106;-81
2023/12/04 06:12:25;;;;;;;29.63;15.03;;;0.10;99.90;;;;;;5043057;28;20428;-81
2023/12/04 06:14:50;;;;;;;28.43;14.60;;;0.10;99.90;;;;;;5084765;28;20568;-81
2023/12/04 06:17:16;;;;;;;31.30;14.50;;;0.10;99.90;;;;;;5030274;28;20051;-82
2023/12/04 06:19:42;;;;;;;28.23;13.40;;;0.40;99.90;;;;;;5051755;28;20496;-81
2023/12/04 06:22:08;;;;;;;28.27;13.93;;;0.10;99.90;;;;;;5043242;28;20038;-81
2023/12/04 06:24:34;;;;;;;26.20;13.40;;;0.10;99.90;;;;;;5048078;28;20044;-81
2023/12/04 06:27:00;;;;;;;28.00;13.90;;;0.10;99.90;;;;;;5035680;28;20059;-81
2023/12/04 06:29:25;;;;;;;27.17;13.97;;;0.10;99.90;;;;;;5034484;28;20037;-81
2023/12/04 06:31:51;;;;;;;25.30;13.23;;;0.10;99.90;;;;;;5030132;28;20044;-81
2023/12/04 06:34:17;;;;;;;27.80;14.40;;;0.10;99.90;;;;;;5046814;28;20072;-81
2023/12/04 06:36:43;;;;;;;27.20;13.90;;;0.10;99.90;;;;;;5077024;28;20068;-80
2023/12/04 06:39:13;;;;;;;28.40;14.13;;;0.10;99.90;;;;;;5047931;28;20044;-80
2023/12/04 06:41:39;;;;;;;24.13;13.20;;;0.10;99.90;;;;;;5046560;28;20555;-81
2023/12/04 06:44:06;;;;;;;26.07;13.70;;;0.10;99.90;;;;;;5051392;28;20037;-81
2023/12/04 06:46:36;;;;;;;26.10;13.57;;;0.00;99.90;;;;;;5043958;28;20542;-81
2023/12/04 06:49:05;;;;;;;25.30;13.13;;;0.10;99.90;;;;;;5047665;28;20043;-82
2023/12/04 06:51:30;;;;;;;24.17;12.90;;;0.50;99.90;;;;;;5049773;28;20048;-81
2023/12/04 06:53:56;;;;;;;26.63;13.07;;;0.10;99.90;;;;;;5043677;28;20382;-80
2023/12/04 06:56:22;;;;;;;28.80;14.33;;;0.00;99.90;;;;;;5046518;28;20587;-81
2023/12/04 06:58:47;;;;;;;27.30;13.70;;;0.00;99.90;;;;;;5032138;28;20033;-81
2023/12/04 07:01:13;;;;;;;26.33;14.27;;;0.00;99.90;;;;;;5049688;28;20076;-81
2023/12/04 07:03:39;;;;;;;25.90;13.13;;;0.00;99.90;;;;;;5051807;28;20513;-81
2023/12/04 07:06:05;;;;;;;29.07;13.90;;;0.00;99.90;;;;;;5028982;28;20650;-80
2023/12/04 07:08:30;;;;;;;24.73;13.27;;;-0.10;99.90;;;;;;5050738;28;20036;-81
2023/12/04 07:10:56;;;;;;;25.57;12.93;;;0.00;99.90;;;;;;5030072;28;20029;-81
2023/12/04 07:13:21;;;;;;;24.50;13.03;;;-0.10;99.90;;;;;;5042705;28;20079;-80
2023/12/04 07:15:47;;;;;;;25.43;13.53;;;-0.10;99.90;;;;;;5049995;28;20037;-81
2023/12/04 07:18:13;;;;;;;25.30;13.57;;;0.00;99.90;;;;;;5034278;28;20037;-81
2023/12/04 07:20:38;;;;;;;24.93;13.03;;;-0.10;99.90;;;;;;5029651;28;20040;-80
2023/12/04 07:23:04;;;;;;;24.43;13.40;;;-0.10;99.90;;;;;;5030172;28;20045;-81
2023/12/04 07:25:29;;;;;;;23.20;12.70;;;-0.10;99.90;;;;;;5045178;28;20041;-81
2023/12/04 07:27:57;;;;;;;26.70;13.20;;;-0.10;99.90;;;;;;5034473;28;20444;-80
2023/12/04 07:30:24;;;;;;;26.20;12.90;;;-0.10;99.90;;;;;;5046575;28;20044;-81
2023/12/04 07:32:50;;;;;;;24.77;12.30;;;-0.10;99.90;;;;;;5050898;28;20051;-80
2023/12/04 07:35:17;;;;;;;24.57;13.10;;;-0.10;99.90;;;;;;5050677;28;20028;-81
2023/12/04 07:37:43;;;;;;;23.93;12.60;;;-0.10;99.90;;;;;;5042310;28;20048;-81
2023/12/04 07:40:10;;;;;;;23.93;12.73;;;0.80;99.90;;;;;;5044338;28;20049;-81
2023/12/04 07:42:36;;;;;;;24.10;11.87;;;-0.10;99.90;;;;;;5047424;28;20037;-81
2023/12/04 07:45:02;;;;;;;22.70;12.70;;;-0.10;99.90;;;;;;5078289;28;20048;-81
2023/12/04 07:47:28;;;;;;;24.07;13.03;;;-0.10;99.90;;;;;;5046549;28;20131;-81
2023/12/04 07:49:54;;;;;;;27.17;13.57;;;-0.10;99.90;;;;;;5042019;28;20126;-80
2023/12/04 07:52:19;;;;;;;21.83;12.63;;;-0.10;99.90;;;;;;5056867;28;20570;-81
2023/12/04 07:54:45;;;;;;;23.43;12.30;;;-0.10;99.90;;;;;;5051947;28;20546;-81
2023/12/04 07:57:10;;;;;;;24.30;13.23;;;0.00;99.90;;;;;;5051840;28;20033;-81
2023/12/04 07:59:36;;;;;;;22.47;12.57;;;0.00;99.90;;;;;;5034645;28;20036;-81
2023/12/04 08:02:02;;;;;;;24.13;12.67;;;0.00;99.90;;;;;;5050381;28;20033;-80
2023/12/04 08:04:27;;;;;;;23.77;11.90;;;0.00;99.90;;;;;;5040709;28;20547;-81
2023/12/04 08:06:53;;;;;;;20.83;11.33;;;0.00;99.90;;;;;;5049360;28;20459;-80
2023/12/04 08:09:19;;;;;;;25.23;12.53;;;0.00;99.90;;;;;;5031639;28;20041;-80
2023/12/04 08:11:45;;;;;;;21.37;11.93;;;0.00;99.90;;;;;;5031298;28;20133;-81
2023/12/04 08:14:11;;;;;;;20.87;11.30;;;0.10;99.90;;;;;;5050297;28;20072;-81
2023/12/04 08:16:36;;;;;;;21.83;11.20;;;0.10;99.90;;;;;;5048342;28;20056;-81
2023/12/04 08:19:02;;;;;;;21.50;11.20;;;0.10;99.90;;;;;;5051145;28;20089;-81
2023/12/04 08:21:27;;;;;;;20.43;11.27;;;0.20;99.90;;;;;;5082460;28;20512;-80
2023/12/04 08:23:53;;;;;;;22.47;11.70;;;0.70;99.90;;;;;;5053288;28;20037;-80
2023/12/04 08:26:25;;;;;;;21.87;10.70;;;0.10;99.90;;;;;;5086773;28;20558;-80
2023/12/04 08:28:52;;;;;;;19.70;10.57;;;0.20;99.90;;;;;;5053418;28;20045;-80
2023/12/04 08:31:17;;;;;;;19.57;10.73;;;0.20;99.90;;;;;;5049978;28;20119;-80
2023/12/04 08:33:43;;;;;;;20.27;10.83;;;0.20;99.90;;;;;;5047705;28;20524;-80
2023/12/04 08:36:10;;;;;;;18.60;10.87;;;0.20;99.90;;;;;;5027059;28;20037;-80
2023/12/04 08:38:36;;;;;;;20.47;10.70;;;0.30;99.90;;;;;;5054125;28;20040;-80
2023/12/04 08:41:02;;;;;;;18.57;10.50;;;0.30;99.90;;;;;;5029445;28;20049;-80
2023/12/04 08:43:28;;;;;;;19.70;10.03;;;0.30;99.90;;;;;;5046410;28;20124;-80
2023/12/04 08:45:54;;;;;;;19.33;10.50;;;0.30;99.90;;;;;;5042556;28;20569;-80
2023/12/04 08:48:20;;;;;;;16.80;9.67;;;0.30;99.90;;;;;;5042174;28;20055;-80
2023/12/04 08:50:46;;;;;;;18.57;10.23;;;0.40;99.90;;;;;;5032035;28;20041;-80
2023/12/04 08:53:12;;;;;;;18.27;9.87;;;0.40;99.90;;;;;;5051042;28;20118;-80
2023/12/04 08:55:38;;;;;;;19.53;10.07;;;0.40;99.90;;;;;;5049127;28;20061;-80
2023/12/04 08:58:03;;;;;;;16.77;9.73;;;0.40;99.90;;;;;;5051638;28;20064;-80
2023/12/04 09:00:29;;;;;;;17.57;9.90;;;0.70;99.90;;;;;;5049894;28;20041;-80
2023/12/04 09:02:55;;;;;;;17.50;10.10;;;0.50;99.90;;;;;;5032841;28;20083;-79
2023/12/04 09:05:21;;;;;;;17.70;9.43;;;0.50;99.90;;;;;;5048146;28;20047;-79
2023/12/04 09:07:46;;;;;;;16.77;9.60;;;0.50;99.90;;;;;;5051587;28;20079;-80
2023/12/04 09:10:12;;;;;;;17.03;9.50;;;0.50;99.90;;;;;;5041318;28;20044;-79
2023/12/04 09:12:39;;;;;;;17.33;9.23;;;0.50;99.90;;;;;;5050373;28;20603;-79
2023/12/04 09:15:05;;;;;;;16.13;9.33;;;0.50;99.90;;;;;;5040420;28;20037;-79
2023/12/04 09:17:31;;;;;;;17.93;9.90;;;0.50;99.90;;;;;;5075903;28;20026;-80
2023/12/04 09:19:57;;;;;;;17.10;9.40;;;0.50;99.90;;;;;;5045734;28;20051;-79
2023/12/04 09:22:22;;;;;;;15.87;8.63;;;1.40;99.90;;;;;;5030872;28;20048;-79
2023/12/04 09:24:48;;;;;;;18.70;9.47;;;0.50;99.90;;;;;;5041307;28;20044;-79
2023/12/04 09:27:14;;;;;;;17.03;9.40;;;0.50;99.90;;;;;;5025591;28;20170;-79
2023/12/04 09:29:41;;;;;;;17.93;9.47;;;0.50;99.90;;;;;;5039603;28;20420;-79
2023/12/04 09:32:09;;;;;;;14.87;9.10;;;0.60;99.90;;;;;;5050013;28;20178;-79
2023/12/04 09:34:35;;;;;;;15.50;9.20;;;0.60;99.90;;;;;;5067481;28;20041;-79
2023/12/04 09:37:01;;;;;;;16.10;9.03;;;0.60;99.90;;;;;;5026321;28;20102;-80
2023/12/04 09:39:27;;;;;;;17.00;8.90;;;0.60;99.90;;;;;;5046785;28;20418;-79
2023/12/04 09:41:54;;;;;;;14.90;8.27;;;0.60;99.90;;;;;;5035345;28;20038;-80
2023/12/04 09:44:22;;;;;;;16.60;9.70;;;0.70;99.90;;;;;;5042146;28;20071;-79
2023/12/04 09:46:48;;;;;;;17.07;9.00;;;0.70;99.90;;;;;;5050924;28;20041;-79
2023/12/04 09:49:14;;;;;;;13.77;8.67;;;0.80;99.90;;;;;;5076146;28;20040;-79
2023/12/04 09:51:39;;;;;;;15.30;8.97;;;0.80;99.90;;;;;;5047908;28;20037;-79
2023/12/04 09:54:06;;;;;;;14.30;8.73;;;0.80;99.90;;;;;;5040675;28;20461;-81
2023/12/04 09:56:34;;;;;;;14.37;9.07;;;0.90;99.90;;;;;;5030133;28;20068;-80
2023/12/04 09:59:00;;;;;;;14.47;8.43;;;0.90;99.90;;;;;;5074343;28;20473;-79
2023/12/04 10:01:30;;;;;;;14.97;8.47;;;1.10;99.90;;;;;;5042087;28;20429;-80
2023/12/04 10:03:58;;;;;;;14.50;8.20;;;0.90;99.90;;;;;;5042501;28;20124;-79
2023/12/04 10:06:27;;;;;;;14.60;8.50;;;1.00;99.90;;;;;;5046452;28;20508;-79
2023/12/04 10:08:55;;;;;;;14.43;8.50;;;1.00;99.90;;;;;;5048372;28;20045;-79
2023/12/04 10:11:20;;;;;;;12.73;7.67;;;1.10;99.90;;;;;;5032099;28;20064;-82
2023/12/04 10:13:46;;;;;;;12.83;7.60;;;1.10;99.90;;;;;;5046591;28;20500;-80
2023/12/04 10:16:11;;;;;;;15.43;8.77;;;1.20;99.90;;;;;;5043021;28;20037;-79
2023/12/04 10:18:37;;;;;;;13.87;8.30;;;1.30;99.90;;;;;;5037756;28;20083;-80
2023/12/04 10:21:03;;;;;;;13.43;8.37;;;1.20;99.90;;;;;;5052334;28;20040;-80
2023/12/04 10:23:39;;;;;;;14.07;8.47;;;1.30;99.90;;;;;;5049099;28;20052;-80
2023/12/04 10:26:07;;;;;;;13.03;7.87;;;1.30;99.90;;;;;;5038017;28;20153;-80
2023/12/04 10:28:33;;;;;;;12.57;8.20;;;1.30;99.90;;;;;;5064612;28;20049;-80
2023/12/04 10:30:59;;;;;;;13.00;7.53;;;1.50;99.90;;;;;;5034395;28;20036;-80
2023/12/04 10:33:28;;;;;;;14.60;8.60;;;1.30;99.90;;;;;;5045338;28;20037;-80
2023/12/04 10:35:55;;;;;;;12.97;7.80;;;1.30;99.90;;;;;;5050184;28;20478;-79
2023/12/04 10:38:21;;;;;;;13.80;8.10;;;1.30;99.90;;;;;;5051623;28;20064;-80
2023/12/04 10:40:47;;;;;;;14.60;7.83;;;1.20;99.90;;;;;;5068758;28;20040;-79
2023/12/04 10:43:19;;;;;;;12.10;7.40;;;1.30;99.90;;;;;;5061432;28;20072;-79
2023/12/04 10:45:47;;;;;;;12.43;7.43;;;1.30;99.90;;;;;;5083373;28;20048;-79
2023/12/04 10:48:14;;;;;;;14.40;8.00;;;1.30;99.90;;;;;;5080569;28;20044;-79
2023/12/04 10:50:43;;;;;;;10.90;7.13;;;1.30;99.90;;;;;;5076067;28;20158;-79
2023/12/04 10:53:11;;;;;;;12.20;7.50;;;1.30;99.90;;;;;;5042406;28;20037;-80
2023/12/04 10:55:37;;;;;;;13.00;7.30;;;1.40;99.90;;;;;;5047734;28;20029;-79
2023/12/04 10:58:15;;;;;;;13.93;7.70;;;1.50;99.90;;;;;;5040460;28;20037;-79
2023/12/04 11:00:50;;;;;;;11.57;7.00;;;1.50;99.90;;;;;;5077509;28;20044;-79
2023/12/04 11:03:25;;;;;;;14.80;7.87;;;1.60;99.90;;;;;;5052850;28;20123;-79
2023/12/04 11:06:00;;;;;;;13.03;7.83;;;1.70;99.90;;;;;;5050012;28;20512;-80
2023/12/04 11:08:30;;;;;;;11.90;7.30;;;1.80;99.90;;;;;;5050708;28;20064;-80
2023/12/04 11:11:03;;;;;;;13.03;7.70;;;1.80;99.90;;;;;;5078136;28;20033;-80
2023/12/04 11:13:31;;;;;;;11.38;6.82;;;1.90;99.90;;;;;;5050311;28;20069;-80
2023/12/04 11:16:04;;;;;;;12.00;7.00;;;1.90;99.90;;;;;;5050379;28;20115;-80
2023/12/04 11:18:34;;;;;;;11.90;7.10;;;2.00;99.90;;;;;;5048405;28;20531;-80
2023/12/04 11:21:07;;;;;;;13.83;7.53;;;2.10;99.90;;;;;;5044005;28;20042;-80
2023/12/04 11:23:34;;;;;;;10.95;6.75;;;2.10;99.90;;;;;;5040540;28;20346;-80
2023/12/04 11:26:01;;;;;;;10.93;6.73;;;2.10;99.90;;;;;;5083140;28;20522;-80
2023/12/04 11:28:28;;;;;;;12.13;7.20;;;2.10;99.90;;;;;;5028064;28;20033;-80
2023/12/04 11:30:54;;;;;;;12.43;7.03;;;2.20;99.90;;;;;;5083484;28;20045;-80
2023/12/04 11:33:20;;;;;;;13.27;7.10;;;2.10;99.90;;;;;;5049171;28;20106;-80
2023/12/04 11:35:45;;;;;;;11.80;7.20;;;2.10;99.90;;;;;;5053978;28;20037;-80
2023/12/04 11:38:15;;;;;;;12.70;7.20;;;2.10;99.90;;;;;;5053169;28;20090;-80
2023/12/04 11:40:44;;;;;;;11.43;7.20;;;2.10;99.90;;;;;;5029409;28;20033;-80
2023/12/04 11:43:29;;;;;;;9.77;6.45;;;2.00;99.90;;;;;;5050943;28;20065;-80
2023/12/04 11:46:09;;;;;;;13.38;7.53;;;2.00;99.90;;;;;;5063856;28;20037;-80
2023/12/04 11:48:36;;;;;;;11.90;6.97;;;1.90;99.90;;;;;;5047970;28;20112;-79
2023/12/04 11:51:02;;;;;;;10.63;6.80;;;1.90;99.90;;;;;;5046027;28;20507;-80
2023/12/04 11:53:27;;;;;;;12.77;7.10;;;1.90;99.90;;;;;;5077758;28;20034;-80
2023/12/04 11:55:58;;;;;;;12.55;7.57;;;1.90;99.90;;;;;;5052329;28;20083;-80
2023/12/04 11:58:24;;;;;;;11.23;6.50;;;1.80;99.90;;;;;;5056473;28;20040;-80
2023/12/04 12:00:52;;;;;;;11.15;6.78;;;1.80;99.90;;;;;;5082670;28;20044;-79
2023/12/04 12:03:17;;;;;;;13.77;7.20;;;1.80;99.90;;;;;;5035702;28;20040;-79
2023/12/04 12:05:44;;;;;;;10.55;6.78;;;1.70;99.90;;;;;;5043744;28;20049;-79
2023/12/04 12:08:10;;;;;;;10.75;7.13;;;1.70;99.90;;;;;;5056340;28;20043;-79
2023/12/04 12:10:36;;;;;;;10.40;6.70;;;1.70;99.90;;;;;;5048858;28;20037;-79
2023/12/04 12:13:02;;;;;;;10.20;6.60;;;1.70;99.90;;;;;;5046518;28;20063;-79
2023/12/04 12:15:29;;;;;;;10.73;6.28;;;1.70;99.90;;;;;;5038354;28;20028;-79
2023/12/04 12:17:54;;;;;;;10.98;7.00;;;1.70;99.90;;;;;;5052318;28;20459;-80
2023/12/04 12:20:20;;;;;;;11.70;7.03;;;1.70;99.90;;;;;;5056992;28;20098;-79
2023/12/04 12:22:48;;;;;;;11.65;6.95;;;1.70;99.90;;;;;;5034441;28;20040;-79
2023/12/04 12:25:14;;;;;;;10.95;6.13;;;1.70;99.90;;;;;;5028305;28;20107;-79
2023/12/04 12:27:40;;;;;;;10.93;6.80;;;1.70;99.90;;;;;;5046983;28;20041;-79
2023/12/04 12:30:07;;;;;;;10.98;7.15;;;1.70;99.90;;;;;;5021870;28;20072;-79